Time;durP1;ratioP1;P1;durP2;ratioP2;P2;SDS_P1;SDS_P2;PMS_P1;PMS_P2;Temp;Humidity;BMP_temperature;BMP_pressure;BME280_temperature;BME280_humidity;BME280_pressure;Samples;Min_cycle;Max_cycle;Signal;HPM_P1;HPM_P2
2020/12/23 00:01:04;;;;;;;12.25;9.43;;;8.50;99.90;;;;;;5066005;28;20227;-84
2020/12/23 00:03:30;;;;;;;14.98;7.82;;;8.40;99.90;;;;;;5067769;28;20214;-83
2020/12/23 00:05:57;;;;;;;9.55;8.48;;;8.40;99.90;;;;;;5066812;28;20221;-84
2020/12/23 00:08:23;;;;;;;10.93;9.82;;;8.40;99.90;;;;;;5073466;28;20213;-84
2020/12/23 00:10:50;;;;;;;9.80;8.70;;;8.40;99.90;;;;;;5096228;28;20218;-82
2020/12/23 00:13:17;;;;;;;10.98;9.50;;;8.40;99.90;;;;;;5083258;28;20222;-83
2020/12/23 00:15:43;;;;;;;10.75;8.88;;;8.30;99.90;;;;;;5081541;28;20209;-83
2020/12/23 00:18:11;;;;;;;14.57;9.15;;;8.20;99.90;;;;;;5083841;28;20206;-82
2020/12/23 00:20:37;;;;;;;17.50;11.75;;;8.20;99.90;;;;;;5082815;28;20218;-82
2020/12/23 00:23:04;;;;;;;10.43;9.13;;;8.10;99.90;;;;;;5095137;28;20208;-83
2020/12/23 00:25:30;;;;;;;16.42;10.75;;;8.00;99.90;;;;;;5089708;28;20202;-82
2020/12/23 00:27:57;;;;;;;14.55;9.60;;;8.00;99.90;;;;;;5086837;28;20205;-83
2020/12/23 00:30:23;;;;;;;17.33;10.48;;;8.00;99.90;;;;;;5096254;28;20248;-83
2020/12/23 00:32:50;;;;;;;17.42;12.20;;;8.00;99.90;;;;;;5088768;28;20230;-83
2020/12/23 00:35:17;;;;;;;13.55;12.10;;;7.90;99.90;;;;;;5082929;28;20208;-83
2020/12/23 00:37:44;;;;;;;11.52;10.15;;;7.90;99.90;;;;;;5082622;28;20275;-83
2020/12/23 00:40:10;;;;;;;18.45;10.98;;;7.90;99.90;;;;;;5082321;28;20233;-83
2020/12/23 00:42:37;;;;;;;17.40;10.25;;;7.90;99.90;;;;;;5083534;28;20205;-85
2020/12/23 00:45:04;;;;;;;11.82;10.63;;;7.90;99.90;;;;;;5082913;28;20690;-84
2020/12/23 00:47:31;;;;;;;15.63;11.05;;;7.90;99.90;;;;;;5082925;28;20205;-83
2020/12/23 00:49:57;;;;;;;16.67;11.75;;;7.80;99.90;;;;;;5083803;28;20242;-83
2020/12/23 00:52:25;;;;;;;12.35;10.48;;;7.80;99.90;;;;;;5088832;28;20234;-83
2020/12/23 00:54:51;;;;;;;14.05;12.52;;;7.80;99.90;;;;;;5087042;28;20217;-83
2020/12/23 00:57:18;;;;;;;11.45;10.27;;;7.80;99.90;;;;;;5094023;28;20220;-85
2020/12/23 00:59:44;;;;;;;18.20;12.85;;;7.80;99.90;;;;;;5096889;28;20220;-83
2020/12/23 01:02:11;;;;;;;18.17;15.00;;;7.80;99.90;;;;;;5099007;28;20196;-84
2020/12/23 01:04:38;;;;;;;13.95;12.43;;;7.70;99.90;;;;;;5098354;28;20188;-84
2020/12/23 01:07:05;;;;;;;19.30;15.35;;;7.70;99.90;;;;;;5097665;28;20222;-85
2020/12/23 01:09:33;;;;;;;18.30;12.52;;;7.60;99.90;;;;;;5096656;28;20201;-85
2020/12/23 01:11:59;;;;;;;21.08;11.85;;;7.60;99.90;;;;;;5095005;28;20202;-84
2020/12/23 01:14:26;;;;;;;18.30;13.02;;;7.40;99.90;;;;;;5090538;28;20220;-84
2020/12/23 01:16:54;;;;;;;23.52;13.15;;;7.60;99.90;;;;;;5091345;28;20198;-84
2020/12/23 01:19:21;;;;;;;17.95;13.77;;;7.60;99.90;;;;;;5088883;28;20218;-84
2020/12/23 01:21:48;;;;;;;20.42;13.10;;;7.50;99.90;;;;;;5086507;28;20221;-83
2020/12/23 01:24:15;;;;;;;15.98;12.82;;;7.50;99.90;;;;;;5082101;28;20275;-83
2020/12/23 01:26:42;;;;;;;17.73;13.40;;;7.50;99.90;;;;;;5082313;28;20208;-84
2020/12/23 01:29:09;;;;;;;13.57;12.27;;;7.50;99.90;;;;;;5081524;28;20256;-83
2020/12/23 01:31:35;;;;;;;18.67;13.20;;;7.50;99.90;;;;;;5081791;28;20220;-83
2020/12/23 01:34:02;;;;;;;17.30;14.77;;;7.50;99.90;;;;;;5081550;28;20248;-83
2020/12/23 01:36:28;;;;;;;23.13;15.18;;;7.40;99.90;;;;;;5082396;28;20201;-85
2020/12/23 01:38:55;;;;;;;22.25;16.85;;;7.40;99.90;;;;;;5082420;28;20203;-85
2020/12/23 01:41:21;;;;;;;23.48;18.15;;;7.30;99.90;;;;;;5082744;28;20230;-84
2020/12/23 01:43:53;;;;;;;22.77;17.35;;;7.20;99.90;;;;;;5082368;28;20216;-84
2020/12/23 01:46:28;;;;;;;23.77;17.25;;;7.10;99.90;;;;;;5081699;28;20192;-84
2020/12/23 01:48:55;;;;;;;22.75;16.92;;;7.10;99.90;;;;;;5089377;28;20178;-83
2020/12/23 01:51:22;;;;;;;19.67;15.30;;;7.10;99.90;;;;;;5083834;28;20239;-84
2020/12/23 01:53:49;;;;;;;21.48;17.27;;;7.10;99.90;;;;;;5080850;28;20225;-84
2020/12/23 01:56:20;;;;;;;28.10;16.63;;;7.10;99.90;;;;;;5079891;28;20568;-83
2020/12/23 01:58:47;;;;;;;21.75;17.73;;;7.10;99.90;;;;;;5079724;28;20642;-84
2020/12/23 02:01:18;;;;;;;22.00;16.75;;;7.00;99.90;;;;;;5082622;28;20225;-85
2020/12/23 02:03:46;;;;;;;24.27;18.33;;;7.10;99.90;;;;;;5081767;28;20608;-85
2020/12/23 02:06:12;;;;;;;25.63;18.67;;;7.00;99.90;;;;;;5083008;28;20224;-84
2020/12/23 02:08:41;;;;;;;19.40;15.82;;;7.10;99.90;;;;;;5077085;28;20212;-84
2020/12/23 02:11:10;;;;;;;18.23;15.48;;;7.10;99.90;;;;;;5081407;28;20224;-82
2020/12/23 02:13:38;;;;;;;17.00;15.15;;;7.20;99.90;;;;;;5082503;28;20227;-83
2020/12/23 02:16:05;;;;;;;16.60;13.85;;;7.20;99.90;;;;;;5082273;28;20216;-83
2020/12/23 02:18:34;;;;;;;17.83;14.25;;;7.30;99.90;;;;;;5082122;28;20209;-83
2020/12/23 02:21:01;;;;;;;19.25;13.88;;;7.40;99.90;;;;;;5081647;28;20710;-82
2020/12/23 02:23:29;;;;;;;17.05;12.82;;;7.40;99.90;;;;;;5079890;28;20208;-82
2020/12/23 02:25:55;;;;;;;18.55;13.85;;;7.50;99.90;;;;;;5085696;28;20232;-82
2020/12/23 02:28:22;;;;;;;14.32;12.07;;;7.50;99.90;;;;;;5079676;28;20666;-83
2020/12/23 02:30:49;;;;;;;17.92;14.65;;;7.60;99.90;;;;;;5080589;28;20213;-82
2020/12/23 02:33:15;;;;;;;17.10;14.30;;;7.60;99.90;;;;;;5079930;28;20221;-83
2020/12/23 02:35:42;;;;;;;15.70;12.43;;;7.60;99.90;;;;;;5079116;28;20614;-84
2020/12/23 02:38:09;;;;;;;16.77;13.77;;;7.70;99.90;;;;;;5079409;28;20202;-83
2020/12/23 02:40:36;;;;;;;15.35;13.45;;;7.70;99.90;;;;;;5080299;28;20601;-84
2020/12/23 02:43:03;;;;;;;21.83;15.38;;;7.70;99.90;;;;;;5080335;28;20202;-84
2020/12/23 02:45:29;;;;;;;23.15;15.88;;;7.70;99.90;;;;;;5080940;28;20205;-84
2020/12/23 02:47:56;;;;;;;18.63;15.27;;;7.70;99.90;;;;;;5080973;28;20210;-83
2020/12/23 02:50:23;;;;;;;18.70;14.43;;;7.80;99.90;;;;;;5080793;28;20226;-84
2020/12/23 02:52:49;;;;;;;22.33;16.60;;;7.70;99.90;;;;;;5079257;28;20232;-84
2020/12/23 02:55:16;;;;;;;22.02;17.20;;;7.70;99.90;;;;;;5080525;28;20201;-83
2020/12/23 02:57:43;;;;;;;20.58;17.20;;;7.70;99.90;;;;;;5084831;28;20213;-83
2020/12/23 03:00:09;;;;;;;16.80;15.00;;;7.70;99.90;;;;;;5085225;28;20237;-83
2020/12/23 03:02:36;;;;;;;22.35;19.20;;;7.70;99.90;;;;;;5079744;28;20208;-84
2020/12/23 03:05:03;;;;;;;29.05;19.00;;;7.70;99.90;;;;;;5079613;28;20608;-83
2020/12/23 03:07:30;;;;;;;24.67;18.95;;;7.70;99.90;;;;;;5079476;28;20202;-83
2020/12/23 03:09:56;;;;;;;23.17;19.60;;;7.60;99.90;;;;;;5075375;28;20221;-82
2020/12/23 03:12:23;;;;;;;34.90;25.33;;;7.60;99.90;;;;;;5078083;28;20205;-82
2020/12/23 03:14:50;;;;;;;36.70;25.80;;;7.50;99.90;;;;;;5078965;28;20197;-81
2020/12/23 03:17:17;;;;;;;47.80;27.25;;;7.40;99.90;;;;;;5088635;28;20231;-81
2020/12/23 03:19:44;;;;;;;32.28;22.98;;;7.40;99.90;;;;;;5090946;28;20234;-82
2020/12/23 03:22:10;;;;;;;36.78;24.40;;;7.30;99.90;;;;;;5090204;28;20205;-82
2020/12/23 03:24:37;;;;;;;29.02;22.70;;;7.30;99.90;;;;;;5081890;28;20209;-82
2020/12/23 03:27:03;;;;;;;20.42;18.00;;;7.20;99.90;;;;;;5084145;28;20637;-82
2020/12/23 03:29:30;;;;;;;32.90;24.05;;;7.30;99.90;;;;;;5086924;28;20205;-83
2020/12/23 03:31:57;;;;;;;23.38;18.55;;;7.30;99.90;;;;;;5087657;28;20203;-83
2020/12/23 03:34:24;;;;;;;30.10;21.08;;;7.30;99.90;;;;;;5090872;28;20226;-83
2020/12/23 03:36:50;;;;;;;22.27;19.40;;;7.20;99.90;;;;;;5087929;28;20239;-83
2020/12/23 03:39:17;;;;;;;23.83;17.35;;;7.20;99.90;;;;;;5084420;28;20213;-83
2020/12/23 06:19:39;;;;;;;17.70;15.32;;;6.40;99.90;;;;;;5079013;28;20705;-83
2020/12/23 06:22:07;;;;;;;15.02;12.07;;;6.50;99.90;;;;;;5078337;28;20234;-83
2020/12/23 06:24:35;;;;;;;18.73;14.98;;;6.50;99.90;;;;;;5080580;28;20195;-82
2020/12/23 06:27:05;;;;;;;16.13;14.55;;;6.50;99.90;;;;;;5082383;28;20213;-83
2020/12/23 06:29:34;;;;;;;13.93;12.52;;;6.60;99.90;;;;;;5083521;28;20212;-83
2020/12/23 06:32:02;;;;;;;13.48;12.18;;;6.60;99.90;;;;;;5083804;28;20216;-83
2020/12/23 06:34:30;;;;;;;20.73;15.73;;;6.70;99.90;;;;;;5081257;28;20276;-82
2020/12/23 06:36:59;;;;;;;17.77;15.20;;;6.70;99.90;;;;;;5092584;28;20184;-84
2020/12/23 06:39:31;;;;;;;15.45;13.80;;;6.80;99.90;;;;;;5087285;28;20197;-81
2020/12/23 06:42:24;;;;;;;15.63;14.07;;;6.70;99.90;;;;;;5093180;28;20217;-80
2020/12/23 06:45:13;;;;;;;12.25;11.05;;;6.90;99.90;;;;;;5089984;28;20215;-82
2020/12/23 06:47:41;;;;;;;17.17;13.95;;;6.90;99.90;;;;;;5096507;28;20199;-86
2020/12/23 06:50:30;;;;;;;13.80;11.27;;;6.90;99.90;;;;;;5097228;28;20226;-83
2020/12/23 06:52:58;;;;;;;14.30;11.63;;;7.00;99.90;;;;;;5097664;28;20229;-87
2020/12/23 06:55:46;;;;;;;15.85;13.40;;;7.00;99.90;;;;;;5095644;28;20185;-84
2020/12/23 06:58:39;;;;;;;15.32;11.15;;;7.10;99.90;;;;;;5078843;28;20602;-83
2020/12/23 07:01:19;;;;;;;15.23;11.45;;;7.20;99.90;;;;;;5079920;28;20232;-83
2020/12/23 07:03:47;;;;;;;16.15;11.93;;;7.30;99.90;;;;;;5078221;28;20226;-82
2020/12/23 07:06:30;;;;;;;12.02;10.05;;;7.40;99.90;;;;;;5081033;28;20214;-84
2020/12/23 07:09:01;;;;;;;16.85;12.40;;;7.50;99.90;;;;;;5087211;28;20195;-83
2020/12/23 07:11:32;;;;;;;11.50;10.30;;;7.50;99.90;;;;;;5089433;28;20235;-82
2020/12/23 07:13:59;;;;;;;10.43;9.25;;;7.50;99.90;;;;;;5104211;28;20571;-83
2020/12/23 07:16:26;;;;;;;12.32;11.13;;;7.60;99.90;;;;;;5105468;28;20197;-83
2020/12/23 07:18:54;;;;;;;15.65;11.85;;;7.70;99.90;;;;;;5105258;28;20229;-82
2020/12/23 07:21:26;;;;;;;14.85;11.98;;;7.70;99.90;;;;;;5107102;28;20585;-82
2020/12/23 07:23:56;;;;;;;12.80;11.50;;;7.70;99.90;;;;;;5106766;28;20213;-83
2020/12/23 07:26:25;;;;;;;12.65;10.77;;;7.70;99.90;;;;;;5106306;28;20235;-82
2020/12/23 07:28:54;;;;;;;13.85;11.70;;;7.80;99.90;;;;;;5106590;28;20196;-82
2020/12/23 07:31:21;;;;;;;12.45;10.57;;;7.90;99.90;;;;;;5106316;28;20231;-82
2020/12/23 07:33:48;;;;;;;13.95;12.45;;;7.90;99.90;;;;;;5108848;28;20255;-83
2020/12/23 07:36:15;;;;;;;13.82;12.45;;;8.00;99.90;;;;;;5111268;28;20657;-81
2020/12/23 07:38:41;;;;;;;15.43;13.75;;;8.00;99.90;;;;;;5111302;28;20233;-82
2020/12/23 07:41:12;;;;;;;14.85;12.23;;;8.00;99.90;;;;;;5107078;28;20596;-84
2020/12/23 07:43:40;;;;;;;20.33;15.65;;;8.10;99.90;;;;;;5105209;28;20212;-84
2020/12/23 07:46:06;;;;;;;18.77;14.43;;;8.10;99.90;;;;;;5104770;28;20212;-83
2020/12/23 07:48:33;;;;;;;16.27;14.50;;;8.10;99.90;;;;;;5105645;28;20212;-82
2020/12/23 07:51:01;;;;;;;20.35;15.23;;;8.10;99.90;;;;;;5105780;28;20243;-84
2020/12/23 07:53:29;;;;;;;14.13;12.30;;;8.10;99.90;;;;;;5105345;28;20234;-82
2020/12/23 07:56:01;;;;;;;18.85;12.40;;;8.10;99.90;;;;;;5105419;28;20230;-83
2020/12/23 07:58:28;;;;;;;21.58;15.15;;;8.10;99.90;;;;;;5104266;28;20678;-83
2020/12/23 08:00:56;;;;;;;11.93;10.73;;;8.20;99.90;;;;;;5103800;28;20707;-84
2020/12/23 08:03:26;;;;;;;16.25;12.18;;;8.20;99.90;;;;;;5103923;28;20207;-84
2020/12/23 08:06:06;;;;;;;16.17;12.05;;;8.30;99.90;;;;;;5105182;28;20199;-82
2020/12/23 08:08:34;;;;;;;15.27;11.55;;;8.40;99.90;;;;;;5105754;28;20215;-84
2020/12/23 08:11:10;;;;;;;15.45;11.00;;;8.40;99.90;;;;;;5106313;28;20287;-85
2020/12/23 08:13:37;;;;;;;15.68;10.80;;;8.40;99.90;;;;;;5094998;28;20219;-82
2020/12/23 08:16:06;;;;;;;11.27;9.85;;;8.30;99.90;;;;;;5100026;28;20692;-81
2020/12/23 08:18:33;;;;;;;17.75;10.40;;;8.40;99.90;;;;;;5099921;28;20260;-83
2020/12/23 08:21:26;;;;;;;12.25;9.07;;;8.40;99.90;;;;;;5106931;28;20248;-82
2020/12/23 08:27:22;;;;;;;13.85;9.75;;;8.50;99.90;;;;;;5089297;28;20588;-81
2020/12/23 08:29:49;;;;;;;8.60;7.55;;;8.50;99.90;;;;;;5100171;28;20206;-81
2020/12/23 08:32:20;;;;;;;10.32;7.90;;;8.50;99.90;;;;;;5099129;28;20641;-80
2020/12/23 08:34:47;;;;;;;9.35;7.03;;;8.50;99.90;;;;;;5100037;28;20209;-79
2020/12/23 08:37:22;;;;;;;8.00;7.03;;;8.50;99.90;;;;;;5098358;28;20201;-82
2020/12/23 08:39:53;;;;;;;11.10;8.90;;;8.50;99.90;;;;;;5098430;28;20189;-80
2020/12/23 08:42:22;;;;;;;8.05;6.75;;;8.50;99.90;;;;;;5098166;28;20221;-80
2020/12/23 08:44:50;;;;;;;11.63;7.70;;;8.50;99.90;;;;;;5094168;28;20208;-85
2020/12/23 08:47:37;;;;;;;15.38;11.40;;;8.50;99.90;;;;;;5098095;28;20247;-81
2020/12/23 08:50:03;;;;;;;11.95;8.65;;;8.60;99.90;;;;;;5099411;28;20205;-81
2020/12/23 08:52:30;;;;;;;13.85;7.40;;;8.60;99.90;;;;;;5099996;28;20213;-79
2020/12/23 08:54:56;;;;;;;12.57;8.70;;;8.60;99.90;;;;;;5109512;28;20235;-80
2020/12/23 08:57:26;;;;;;;14.40;10.32;;;8.70;99.90;;;;;;5107860;28;20225;-80
2020/12/23 08:59:53;;;;;;;13.93;9.65;;;8.80;99.90;;;;;;5100630;28;20266;-80
2020/12/23 09:02:20;;;;;;;11.52;7.40;;;8.70;99.90;;;;;;5098702;28;20229;-81
2020/12/23 09:04:48;;;;;;;13.80;10.13;;;8.80;99.90;;;;;;5100967;28;20204;-80
2020/12/23 09:07:21;;;;;;;12.35;10.63;;;8.70;99.90;;;;;;5091648;28;20206;-81
2020/12/23 09:09:48;;;;;;;13.50;8.80;;;8.70;99.90;;;;;;5085178;28;20295;-81
2020/12/23 09:12:24;;;;;;;12.90;9.82;;;8.80;99.90;;;;;;5099507;28;20230;-83
2020/12/23 09:14:50;;;;;;;10.90;9.80;;;8.80;99.90;;;;;;5096282;28;20690;-82
2020/12/23 09:17:25;;;;;;;15.63;10.52;;;8.90;99.90;;;;;;5099112;28;20208;-81
2020/12/23 09:19:54;;;;;;;17.17;8.60;;;9.00;99.90;;;;;;5100327;28;20185;-82
2020/12/23 09:22:29;;;;;;;9.50;7.90;;;9.00;99.90;;;;;;5098358;28;20222;-79
2020/12/23 09:25:29;;;;;;;10.20;8.38;;;9.10;99.90;;;;;;5102612;28;20216;-84
2020/12/23 09:28:15;;;;;;;12.98;7.43;;;9.00;99.90;;;;;;5101416;28;20725;-82
2020/12/23 09:30:46;;;;;;;11.90;8.05;;;9.10;99.90;;;;;;5101027;28;20226;-82
2020/12/23 09:33:13;;;;;;;9.93;7.28;;;9.10;99.90;;;;;;5102094;28;20212;-84
2020/12/23 09:35:42;;;;;;;15.10;12.45;;;9.20;99.90;;;;;;5101080;28;20217;-83
2020/12/23 09:38:11;;;;;;;16.25;10.68;;;9.20;99.90;;;;;;5100780;28;20225;-85
2020/12/23 09:40:41;;;;;;;13.15;9.80;;;9.20;99.90;;;;;;5101138;28;20260;-84
2020/12/23 09:43:12;;;;;;;14.60;9.95;;;9.30;99.90;;;;;;5099975;28;20830;-84
2020/12/23 09:45:39;;;;;;;17.65;10.85;;;9.30;99.90;;;;;;5094368;28;20198;-84
2020/12/23 09:48:06;;;;;;;13.48;11.07;;;9.30;99.90;;;;;;5112635;28;20204;-82
2020/12/23 09:50:33;;;;;;;12.00;9.23;;;9.30;99.90;;;;;;5116244;28;20234;-84
2020/12/23 09:53:01;;;;;;;12.50;8.50;;;9.30;99.90;;;;;;5116515;28;20257;-84
2020/12/23 09:55:27;;;;;;;18.17;9.48;;;9.30;99.90;;;;;;5112292;28;20198;-85
2020/12/23 09:57:54;;;;;;;13.52;10.90;;;9.30;99.90;;;;;;5104882;28;20208;-85
2020/12/23 10:00:21;;;;;;;10.52;8.88;;;9.30;99.90;;;;;;5102058;28;20236;-86
2020/12/23 10:02:47;;;;;;;16.08;12.02;;;9.30;99.90;;;;;;5102976;28;20266;-85
2020/12/23 10:05:14;;;;;;;17.95;15.00;;;9.30;99.90;;;;;;5103676;28;20247;-85
2020/12/23 10:07:41;;;;;;;15.65;13.82;;;9.30;99.90;;;;;;5103116;28;20228;-84
2020/12/23 10:10:08;;;;;;;20.45;15.57;;;9.30;99.90;;;;;;5105699;28;20210;-84
2020/12/23 10:12:36;;;;;;;19.52;14.85;;;9.30;99.90;;;;;;5103594;28;20577;-84
2020/12/23 10:15:03;;;;;;;17.35;15.32;;;9.20;99.90;;;;;;5087091;28;20219;-84
2020/12/23 10:17:30;;;;;;;19.88;15.10;;;9.20;99.90;;;;;;5107089;28;20228;-81
2020/12/23 10:19:56;;;;;;;16.25;13.98;;;9.10;99.90;;;;;;5105348;28;20202;-84
2020/12/23 10:22:23;;;;;;;19.30;15.38;;;9.10;99.90;;;;;;5106547;28;20237;-84
2020/12/23 10:24:49;;;;;;;18.73;12.52;;;9.10;99.90;;;;;;5125444;28;20209;-82
2020/12/23 10:27:17;;;;;;;17.10;11.43;;;9.10;99.90;;;;;;5124348;28;20205;-84
2020/12/23 10:29:44;;;;;;;18.45;14.88;;;9.20;99.90;;;;;;5124070;28;20184;-83
2020/12/23 10:32:10;;;;;;;24.63;17.55;;;9.20;99.90;;;;;;5124141;28;20225;-83
2020/12/23 10:34:37;;;;;;;18.27;12.55;;;9.10;99.90;;;;;;5128295;28;20231;-82
2020/12/23 10:37:03;;;;;;;26.02;16.95;;;9.10;99.90;;;;;;5132164;28;20205;-83
2020/12/23 10:39:30;;;;;;;25.10;18.55;;;9.10;99.90;;;;;;5134032;28;20197;-81
2020/12/23 10:41:57;;;;;;;22.67;15.77;;;9.10;99.90;;;;;;5133039;28;20246;-82
2020/12/23 10:44:24;;;;;;;23.55;16.90;;;9.10;99.90;;;;;;5114215;28;20205;-81
2020/12/23 10:46:55;;;;;;;23.45;17.73;;;9.20;99.90;;;;;;5111295;28;20223;-83
2020/12/23 10:49:23;;;;;;;19.80;15.65;;;9.20;99.90;;;;;;5107296;28;20198;-84
2020/12/23 10:51:50;;;;;;;22.02;15.30;;;9.10;99.90;;;;;;5107524;28;20259;-85
2020/12/23 10:54:18;;;;;;;25.52;16.98;;;9.20;99.90;;;;;;5105424;28;20214;-84
2020/12/23 10:56:44;;;;;;;26.90;18.15;;;9.20;99.90;;;;;;5108949;28;20247;-83
2020/12/23 10:59:11;;;;;;;21.48;17.08;;;9.20;99.90;;;;;;5108576;28;20206;-84
2020/12/23 11:01:38;;;;;;;25.70;19.15;;;9.20;99.90;;;;;;5104350;28;20221;-84
2020/12/23 11:04:05;;;;;;;20.67;16.15;;;9.30;99.90;;;;;;5102043;28;20620;-83
2020/12/23 11:06:32;;;;;;;31.52;18.13;;;9.30;99.90;;;;;;5102273;28;20229;-86
2020/12/23 11:12:38;;;;;;;25.05;18.80;;;9.30;99.90;;;;;;5065210;28;20217;-87
2020/12/23 11:15:05;;;;;;;20.92;16.35;;;9.20;99.90;;;;;;5086045;28;20230;-82
2020/12/23 11:17:32;;;;;;;27.30;17.73;;;9.30;99.90;;;;;;5108362;28;20198;-84
2020/12/23 11:19:59;;;;;;;22.40;17.00;;;9.30;99.90;;;;;;5110538;28;20201;-84
2020/12/23 11:22:25;;;;;;;28.70;21.85;;;9.40;99.90;;;;;;5118687;28;20190;-80
2020/12/23 11:24:52;;;;;;;27.38;19.00;;;9.30;99.90;;;;;;5120921;28;20178;-79
2020/12/23 11:27:19;;;;;;;24.15;18.38;;;9.40;99.90;;;;;;5119981;28;20182;-79
2020/12/23 11:29:45;;;;;;;27.80;17.35;;;9.40;99.90;;;;;;5120555;28;20253;-81
2020/12/23 11:32:14;;;;;;;31.77;22.45;;;9.40;99.90;;;;;;5119883;28;20209;-80
2020/12/23 11:34:43;;;;;;;24.92;17.98;;;9.50;99.90;;;;;;5113370;28;20302;-85
2020/12/23 11:37:09;;;;;;;24.80;17.52;;;9.40;99.90;;;;;;5103858;28;20202;-85
2020/12/23 11:39:36;;;;;;;24.38;17.60;;;9.40;99.90;;;;;;5105258;28;20211;-86
2020/12/23 11:42:03;;;;;;;21.40;17.50;;;9.40;99.90;;;;;;5106963;28;20222;-84
2020/12/23 11:44:29;;;;;;;24.42;16.63;;;9.40;99.90;;;;;;5114502;28;20209;-82
2020/12/23 11:46:56;;;;;;;21.77;15.88;;;9.40;99.90;;;;;;5114692;28;20217;-82
2020/12/23 11:49:23;;;;;;;18.90;15.80;;;9.40;99.90;;;;;;5112251;28;20263;-83
2020/12/23 11:51:51;;;;;;;23.25;17.27;;;9.40;99.90;;;;;;5108700;28;20329;-84
2020/12/23 11:54:18;;;;;;;31.77;20.52;;;9.30;99.90;;;;;;5108519;28;20230;-82
2020/12/23 11:56:46;;;;;;;29.15;20.38;;;9.30;99.90;;;;;;5107318;28;20201;-84
2020/12/23 11:59:13;;;;;;;22.92;17.33;;;9.30;99.90;;;;;;5108146;28;20203;-83
2020/12/23 12:01:39;;;;;;;26.27;19.38;;;9.40;99.90;;;;;;5106256;28;20706;-82
2020/12/23 12:04:06;;;;;;;29.13;19.77;;;9.40;99.90;;;;;;5107557;28;20195;-83
2020/12/23 12:06:32;;;;;;;20.83;16.70;;;9.30;99.90;;;;;;5108151;28;20201;-80
2020/12/23 12:09:00;;;;;;;21.27;16.55;;;9.40;99.90;;;;;;5115555;28;20698;-84
2020/12/23 12:11:27;;;;;;;22.67;15.43;;;9.40;99.90;;;;;;5103731;28;20225;-85
2020/12/23 12:13:53;;;;;;;28.98;20.27;;;9.40;99.90;;;;;;5107619;28;20231;-84
2020/12/23 12:16:20;;;;;;;26.08;17.95;;;9.40;99.90;;;;;;5106838;28;20209;-82
2020/12/23 12:18:46;;;;;;;22.08;16.73;;;9.30;99.90;;;;;;5106474;28;20224;-83
2020/12/23 12:21:13;;;;;;;21.30;18.33;;;9.40;99.90;;;;;;5104848;28;20218;-84
2020/12/23 12:23:39;;;;;;;25.48;18.75;;;9.40;99.90;;;;;;5104074;28;20210;-83
2020/12/23 12:26:08;;;;;;;24.83;19.25;;;9.40;99.90;;;;;;5103784;28;20212;-84
2020/12/23 12:28:34;;;;;;;30.85;20.52;;;9.30;99.90;;;;;;5104508;28;20206;-84
2020/12/23 12:31:01;;;;;;;31.23;20.65;;;9.30;99.90;;;;;;5103502;28;20226;-84
2020/12/23 12:33:27;;;;;;;24.55;18.52;;;9.40;99.90;;;;;;5105279;28;20202;-84
2020/12/23 12:35:54;;;;;;;17.45;14.38;;;9.40;99.90;;;;;;5105010;28;20202;-84
2020/12/23 12:38:20;;;;;;;15.57;13.77;;;9.30;99.90;;;;;;5104561;28;20658;-81
2020/12/23 12:40:47;;;;;;;42.50;25.75;;;9.50;99.90;;;;;;5102265;28;20222;-85
2020/12/23 12:43:14;;;;;;;22.23;17.05;;;9.40;99.90;;;;;;5103980;28;20643;-84
2020/12/23 12:45:41;;;;;;;43.97;27.10;;;9.50;99.90;;;;;;5103409;28;20206;-82
2020/12/23 12:48:07;;;;;;;16.77;13.65;;;9.40;99.90;;;;;;5103635;28;20287;-83
2020/12/23 12:50:35;;;;;;;14.50;12.93;;;9.40;99.90;;;;;;5103118;28;20222;-84
2020/12/23 12:53:02;;;;;;;17.58;14.45;;;9.40;99.90;;;;;;5102150;28;20209;-84
2020/12/23 12:55:28;;;;;;;16.63;13.30;;;9.50;99.90;;;;;;5100452;28;20226;-84
2020/12/23 12:57:55;;;;;;;32.63;19.20;;;9.50;99.90;;;;;;5094762;28;20209;-84
2020/12/23 13:00:23;;;;;;;16.35;13.32;;;9.50;99.90;;;;;;5104306;28;20332;-86
2020/12/23 13:02:49;;;;;;;17.83;13.73;;;9.50;99.90;;;;;;5099267;28;20492;-84
2020/12/23 13:05:16;;;;;;;23.58;17.58;;;9.60;99.90;;;;;;5089885;28;20202;-86
2020/12/23 13:07:42;;;;;;;15.85;13.43;;;9.60;99.90;;;;;;5099952;28;20201;-84
2020/12/23 13:10:09;;;;;;;17.90;16.02;;;9.60;99.90;;;;;;5099924;28;20209;-84
2020/12/23 13:12:36;;;;;;;13.90;12.25;;;9.70;99.90;;;;;;5099525;28;20255;-86
2020/12/23 13:15:02;;;;;;;23.75;16.50;;;9.60;99.90;;;;;;5099562;28;20222;-86
2020/12/23 13:17:30;;;;;;;13.93;12.20;;;9.60;99.90;;;;;;5100085;28;20220;-86
2020/12/23 13:19:57;;;;;;;14.38;10.75;;;9.70;99.90;;;;;;5099623;28;20270;-87
2020/12/23 13:22:23;;;;;;;14.45;11.25;;;9.70;99.90;;;;;;5100717;28;20229;-85
2020/12/23 13:24:53;;;;;;;20.20;14.70;;;9.70;99.90;;;;;;5099225;28;20235;-87
2020/12/23 13:27:20;;;;;;;17.90;13.10;;;9.70;99.90;;;;;;5099085;28;20487;-90
2020/12/23 13:29:47;;;;;;;20.58;16.90;;;9.70;99.90;;;;;;5099377;28;20209;-88
2020/12/23 13:32:13;;;;;;;23.77;15.68;;;9.70;99.90;;;;;;5098865;28;20733;-89
2020/12/23 13:34:41;;;;;;;27.05;19.67;;;9.80;99.90;;;;;;5098992;28;20237;-86
2020/12/23 13:37:07;;;;;;;27.63;18.85;;;9.80;99.90;;;;;;5100752;28;20200;-87
2020/12/23 13:39:34;;;;;;;18.13;14.38;;;9.80;99.90;;;;;;5102050;28;20187;-86
2020/12/23 13:42:03;;;;;;;16.23;13.77;;;9.80;99.90;;;;;;5113032;28;20236;-85
2020/12/23 13:44:29;;;;;;;21.50;17.08;;;9.80;99.90;;;;;;5115408;28;20260;-83
2020/12/23 13:46:56;;;;;;;16.30;12.80;;;9.80;99.90;;;;;;5117952;28;20190;-83
2020/12/23 13:49:22;;;;;;;30.23;23.73;;;9.90;99.90;;;;;;5118167;28;20178;-84
2020/12/23 13:51:50;;;;;;;23.77;18.50;;;9.80;99.90;;;;;;5117867;28;20288;-85
2020/12/23 13:54:17;;;;;;;26.40;19.75;;;9.80;99.90;;;;;;5117847;28;20229;-84
2020/12/23 13:56:44;;;;;;;22.95;18.42;;;9.80;99.90;;;;;;5115638;28;20196;-87
2020/12/23 13:59:11;;;;;;;33.75;22.38;;;9.80;99.90;;;;;;5097658;28;20292;-83
2020/12/23 14:01:38;;;;;;;18.27;13.77;;;9.70;99.90;;;;;;5098959;28;20659;-83
2020/12/23 14:04:05;;;;;;;22.50;15.75;;;9.70;99.90;;;;;;5099954;28;20201;-84
2020/12/23 14:06:31;;;;;;;16.35;12.38;;;9.80;99.90;;;;;;5098918;28;20202;-84
2020/12/23 14:08:59;;;;;;;13.82;11.82;;;9.90;99.90;;;;;;5100560;28;20198;-83
2020/12/23 14:11:28;;;;;;;18.42;15.02;;;10.00;99.90;;;;;;5102976;28;20225;-82
2020/12/23 14:13:54;;;;;;;16.42;13.18;;;10.00;99.90;;;;;;5102304;28;20320;-82
2020/12/23 14:16:22;;;;;;;15.48;13.85;;;10.00;99.90;;;;;;5102238;28;20240;-82
2020/12/23 14:18:49;;;;;;;17.55;14.00;;;10.10;99.90;;;;;;5100605;28;20209;-83
2020/12/23 14:21:15;;;;;;;17.70;14.43;;;10.10;99.90;;;;;;5102030;28;20232;-83
2020/12/23 14:23:42;;;;;;;15.88;12.75;;;10.10;99.90;;;;;;5100715;28;20214;-82
2020/12/23 14:26:09;;;;;;;14.45;12.00;;;10.10;99.90;;;;;;5100323;28;20206;-82
2020/12/23 14:28:37;;;;;;;16.88;13.82;;;10.10;99.90;;;;;;5100284;28;20236;-83
2020/12/23 14:31:06;;;;;;;14.07;12.48;;;10.10;99.90;;;;;;5098792;28;20233;-83
2020/12/23 14:33:32;;;;;;;16.35;12.65;;;10.10;99.90;;;;;;5100038;28;20202;-83
2020/12/23 14:35:59;;;;;;;15.27;12.95;;;10.10;99.90;;;;;;5089813;28;20218;-83
2020/12/23 14:38:26;;;;;;;15.98;13.15;;;10.10;99.90;;;;;;5098928;28;20743;-86
2020/12/23 14:40:53;;;;;;;17.65;12.85;;;10.10;99.90;;;;;;5097559;28;20222;-82
2020/12/23 14:43:20;;;;;;;13.77;12.32;;;10.10;99.90;;;;;;5097221;28;20202;-83
2020/12/23 14:45:47;;;;;;;14.38;12.35;;;10.10;99.90;;;;;;5102301;28;20198;-80
2020/12/23 14:48:13;;;;;;;15.40;13.32;;;10.10;99.90;;;;;;5117192;28;20197;-79
2020/12/23 14:50:43;;;;;;;14.23;12.27;;;10.10;99.90;;;;;;5116592;28;20240;-82
2020/12/23 14:53:12;;;;;;;14.48;11.38;;;10.10;99.90;;;;;;5117410;28;20174;-81
2020/12/23 14:55:39;;;;;;;14.70;11.65;;;10.10;99.90;;;;;;5116790;28;20228;-81
2020/12/23 14:58:05;;;;;;;9.38;8.57;;;10.10;99.90;;;;;;5116718;28;20516;-81
2020/12/23 15:00:33;;;;;;;12.77;10.15;;;10.10;99.90;;;;;;5116815;28;20275;-80
2020/12/23 15:02:59;;;;;;;9.55;8.55;;;10.20;99.90;;;;;;5117288;28;20187;-83
2020/12/23 15:05:34;;;;;;;9.75;8.70;;;10.20;99.90;;;;;;5116125;28;20200;-88
2020/12/23 15:08:01;;;;;;;8.20;7.38;;;10.20;99.90;;;;;;5101544;28;20301;-85
2020/12/23 15:10:28;;;;;;;10.82;9.57;;;10.20;99.90;;;;;;5100338;28;20234;-84
2020/12/23 15:12:54;;;;;;;9.85;8.70;;;10.20;99.90;;;;;;5098298;28;20205;-86
2020/12/23 15:15:21;;;;;;;14.27;10.60;;;10.20;99.90;;;;;;5099824;28;20226;-85
2020/12/23 15:17:48;;;;;;;15.20;11.43;;;10.10;99.90;;;;;;5100257;28;20206;-85
2020/12/23 15:20:15;;;;;;;13.82;10.55;;;10.00;99.90;;;;;;5099358;28;20240;-85
2020/12/23 15:22:41;;;;;;;14.70;11.95;;;10.00;99.90;;;;;;5098811;28;20313;-85
2020/12/23 15:25:08;;;;;;;16.27;12.93;;;9.90;99.90;;;;;;5098940;28;20206;-85
2020/12/23 15:27:35;;;;;;;14.25;11.00;;;9.90;99.90;;;;;;5098948;28;20206;-86